sensor_id;sensor_type;location;lat;lon;timestamp;P1;durP1;ratioP1;P2;durP2;ratioP2
14847;SDS011;7516;43.570;1.448;2024-03-29T00:01:44;3.97;;;1.07;;
14847;SDS011;7516;43.570;1.448;2024-03-29T00:04:10;2.77;;;1.00;;
14847;SDS011;7516;43.570;1.448;2024-03-29T00:06:37;5.50;;;1.03;;
14847;SDS011;7516;43.570;1.448;2024-03-29T00:09:03;4.10;;;1.03;;
14847;SDS011;7516;43.570;1.448;2024-03-29T00:11:30;4.23;;;1.03;;
14847;SDS011;7516;43.570;1.448;2024-03-29T00:13:56;5.33;;;1.03;;
14847;SDS011;7516;43.570;1.448;2024-03-29T00:16:24;4.60;;;0.90;;
14847;SDS011;7516;43.570;1.448;2024-03-29T00:18:51;4.33;;;1.20;;
14847;SDS011;7516;43.570;1.448;2024-03-29T00:21:18;3.67;;;1.07;;
14847;SDS011;7516;43.570;1.448;2024-03-29T00:23:44;4.03;;;1.20;;
14847;SDS011;7516;43.570;1.448;2024-03-29T00:26:11;5.73;;;0.90;;
14847;SDS011;7516;43.570;1.448;2024-03-29T00:28:38;6.33;;;1.17;;
14847;SDS011;7516;43.570;1.448;2024-03-29T00:31:04;3.33;;;0.90;;
14847;SDS011;7516;43.570;1.448;2024-03-29T00:33:33;3.07;;;0.80;;
14847;SDS011;7516;43.570;1.448;2024-03-29T00:36:00;3.17;;;0.90;;
14847;SDS011;7516;43.570;1.448;2024-03-29T00:38:26;2.47;;;0.80;;
14847;SDS011;7516;43.570;1.448;2024-03-29T00:40:53;2.90;;;0.80;;
14847;SDS011;7516;43.570;1.448;2024-03-29T00:43:19;3.70;;;0.90;;
14847;SDS011;7516;43.570;1.448;2024-03-29T00:45:46;2.57;;;0.97;;
14847;SDS011;7516;43.570;1.448;2024-03-29T00:48:12;4.10;;;1.20;;
14847;SDS011;7516;43.570;1.448;2024-03-29T00:50:41;5.60;;;1.00;;
14847;SDS011;7516;43.570;1.448;2024-03-29T00:53:07;3.30;;;0.80;;
14847;SDS011;7516;43.570;1.448;2024-03-29T00:55:34;3.27;;;0.70;;
14847;SDS011;7516;43.570;1.448;2024-03-29T00:58:00;2.83;;;0.83;;
14847;SDS011;7516;43.570;1.448;2024-03-29T01:00:27;5.60;;;1.10;;
14847;SDS011;7516;43.570;1.448;2024-03-29T01:02:53;4.63;;;0.93;;
14847;SDS011;7516;43.570;1.448;2024-03-29T01:05:20;3.57;;;0.90;;
14847;SDS011;7516;43.570;1.448;2024-03-29T01:07:48;5.30;;;1.00;;
14847;SDS011;7516;43.570;1.448;2024-03-29T01:10:14;5.80;;;1.10;;
14847;SDS011;7516;43.570;1.448;2024-03-29T01:12:41;3.73;;;0.80;;
14847;SDS011;7516;43.570;1.448;2024-03-29T01:15:08;3.20;;;0.90;;
14847;SDS011;7516;43.570;1.448;2024-03-29T01:17:35;3.73;;;1.00;;
14847;SDS011;7516;43.570;1.448;2024-03-29T01:20:02;4.70;;;1.07;;
14847;SDS011;7516;43.570;1.448;2024-03-29T01:22:29;5.50;;;0.90;;
14847;SDS011;7516;43.570;1.448;2024-03-29T01:24:56;2.47;;;1.03;;
14847;SDS011;7516;43.570;1.448;2024-03-29T01:27:23;3.80;;;1.23;;
14847;SDS011;7516;43.570;1.448;2024-03-29T01:29:50;4.60;;;1.00;;
14847;SDS011;7516;43.570;1.448;2024-03-29T01:32:16;5.33;;;1.20;;
14847;SDS011;7516;43.570;1.448;2024-03-29T01:34:43;5.63;;;1.07;;
14847;SDS011;7516;43.570;1.448;2024-03-29T01:37:10;4.70;;;1.03;;
14847;SDS011;7516;43.570;1.448;2024-03-29T01:39:36;4.40;;;1.13;;
14847;SDS011;7516;43.570;1.448;2024-03-29T01:42:05;4.70;;;1.20;;
14847;SDS011;7516;43.570;1.448;2024-03-29T01:44:31;4.77;;;1.30;;
14847;SDS011;7516;43.570;1.448;2024-03-29T01:46:59;5.60;;;1.00;;
14847;SDS011;7516;43.570;1.448;2024-03-29T01:49:29;1.97;;;0.80;;
14847;SDS011;7516;43.570;1.448;2024-03-29T01:51:57;5.17;;;1.23;;
14847;SDS011;7516;43.570;1.448;2024-03-29T01:54:24;4.67;;;1.40;;
14847;SDS011;7516;43.570;1.448;2024-03-29T01:56:52;5.77;;;1.30;;
14847;SDS011;7516;43.570;1.448;2024-03-29T01:59:22;7.57;;;1.37;;
14847;SDS011;7516;43.570;1.448;2024-03-29T02:01:50;4.90;;;1.17;;
14847;SDS011;7516;43.570;1.448;2024-03-29T02:04:17;5.70;;;1.40;;
14847;SDS011;7516;43.570;1.448;2024-03-29T02:06:45;4.30;;;1.20;;
14847;SDS011;7516;43.570;1.448;2024-03-29T02:09:13;6.63;;;1.37;;
14847;SDS011;7516;43.570;1.448;2024-03-29T02:11:40;5.63;;;1.27;;
14847;SDS011;7516;43.570;1.448;2024-03-29T02:14:08;4.67;;;1.10;;
14847;SDS011;7516;43.570;1.448;2024-03-29T02:16:37;7.43;;;1.43;;
14847;SDS011;7516;43.570;1.448;2024-03-29T02:19:05;5.53;;;1.17;;
14847;SDS011;7516;43.570;1.448;2024-03-29T02:21:32;9.67;;;1.70;;
14847;SDS011;7516;43.570;1.448;2024-03-29T02:24:06;6.70;;;1.27;;
14847;SDS011;7516;43.570;1.448;2024-03-29T02:26:34;6.83;;;1.43;;
14847;SDS011;7516;43.570;1.448;2024-03-29T02:29:06;7.93;;;1.50;;
14847;SDS011;7516;43.570;1.448;2024-03-29T02:31:34;8.10;;;1.70;;
14847;SDS011;7516;43.570;1.448;2024-03-29T02:34:02;11.17;;;1.70;;
14847;SDS011;7516;43.570;1.448;2024-03-29T02:36:29;8.60;;;1.50;;
14847;SDS011;7516;43.570;1.448;2024-03-29T02:38:55;8.53;;;1.47;;
14847;SDS011;7516;43.570;1.448;2024-03-29T02:41:24;8.27;;;1.57;;
14847;SDS011;7516;43.570;1.448;2024-03-29T02:43:55;8.50;;;2.10;;
14847;SDS011;7516;43.570;1.448;2024-03-29T02:46:23;9.20;;;1.60;;
14847;SDS011;7516;43.570;1.448;2024-03-29T02:48:51;9.43;;;1.50;;
14847;SDS011;7516;43.570;1.448;2024-03-29T02:51:17;7.37;;;1.90;;
14847;SDS011;7516;43.570;1.448;2024-03-29T02:53:45;7.20;;;1.90;;
14847;SDS011;7516;43.570;1.448;2024-03-29T02:56:11;7.33;;;1.60;;
14847;SDS011;7516;43.570;1.448;2024-03-29T02:58:45;7.30;;;1.60;;
14847;SDS011;7516;43.570;1.448;2024-03-29T03:01:11;7.97;;;1.70;;
14847;SDS011;7516;43.570;1.448;2024-03-29T03:03:39;9.10;;;1.50;;
14847;SDS011;7516;43.570;1.448;2024-03-29T03:06:05;6.47;;;1.57;;
14847;SDS011;7516;43.570;1.448;2024-03-29T03:08:33;8.70;;;2.13;;
14847;SDS011;7516;43.570;1.448;2024-03-29T03:11:18;7.30;;;1.90;;
14847;SDS011;7516;43.570;1.448;2024-03-29T03:13:47;11.47;;;1.80;;
14847;SDS011;7516;43.570;1.448;2024-03-29T03:16:14;9.10;;;1.83;;
14847;SDS011;7516;43.570;1.448;2024-03-29T03:18:42;7.97;;;1.97;;
14847;SDS011;7516;43.570;1.448;2024-03-29T03:21:08;7.57;;;1.70;;
14847;SDS011;7516;43.570;1.448;2024-03-29T03:23:36;6.47;;;1.37;;
14847;SDS011;7516;43.570;1.448;2024-03-29T03:26:02;6.57;;;2.20;;
14847;SDS011;7516;43.570;1.448;2024-03-29T03:28:30;6.20;;;1.80;;
14847;SDS011;7516;43.570;1.448;2024-03-29T03:30:58;7.03;;;1.67;;
14847;SDS011;7516;43.570;1.448;2024-03-29T03:33:25;7.13;;;1.53;;
14847;SDS011;7516;43.570;1.448;2024-03-29T03:35:52;7.20;;;2.27;;
14847;SDS011;7516;43.570;1.448;2024-03-29T03:38:19;7.57;;;1.67;;
14847;SDS011;7516;43.570;1.448;2024-03-29T03:40:46;9.13;;;1.43;;
14847;SDS011;7516;43.570;1.448;2024-03-29T03:43:13;9.40;;;1.63;;
14847;SDS011;7516;43.570;1.448;2024-03-29T03:45:40;5.60;;;1.70;;
14847;SDS011;7516;43.570;1.448;2024-03-29T03:48:11;7.17;;;1.60;;
14847;SDS011;7516;43.570;1.448;2024-03-29T03:50:38;6.03;;;1.63;;
14847;SDS011;7516;43.570;1.448;2024-03-29T03:53:06;7.13;;;1.87;;
14847;SDS011;7516;43.570;1.448;2024-03-29T03:55:35;6.30;;;1.57;;
14847;SDS011;7516;43.570;1.448;2024-03-29T03:58:03;6.23;;;1.43;;
14847;SDS011;7516;43.570;1.448;2024-03-29T04:00:31;6.77;;;2.03;;
14847;SDS011;7516;43.570;1.448;2024-03-29T04:02:58;8.10;;;1.70;;
14847;SDS011;7516;43.570;1.448;2024-03-29T04:05:27;8.00;;;1.67;;
14847;SDS011;7516;43.570;1.448;2024-03-29T04:07:53;9.53;;;1.83;;
14847;SDS011;7516;43.570;1.448;2024-03-29T04:10:21;9.37;;;2.07;;
14847;SDS011;7516;43.570;1.448;2024-03-29T04:12:47;5.47;;;1.50;;
14847;SDS011;7516;43.570;1.448;2024-03-29T04:15:16;4.57;;;1.30;;
14847;SDS011;7516;43.570;1.448;2024-03-29T04:17:42;4.67;;;1.57;;
14847;SDS011;7516;43.570;1.448;2024-03-29T04:20:10;5.53;;;1.67;;
14847;SDS011;7516;43.570;1.448;2024-03-29T04:22:38;10.47;;;1.77;;
14847;SDS011;7516;43.570;1.448;2024-03-29T04:25:06;4.90;;;1.30;;
14847;SDS011;7516;43.570;1.448;2024-03-29T04:27:33;7.07;;;1.70;;
14847;SDS011;7516;43.570;1.448;2024-03-29T04:30:00;4.90;;;1.53;;
14847;SDS011;7516;43.570;1.448;2024-03-29T04:32:27;2.70;;;1.00;;
14847;SDS011;7516;43.570;1.448;2024-03-29T04:34:55;3.47;;;1.03;;
14847;SDS011;7516;43.570;1.448;2024-03-29T04:37:21;3.70;;;1.03;;
14847;SDS011;7516;43.570;1.448;2024-03-29T04:39:50;3.83;;;0.97;;
14847;SDS011;7516;43.570;1.448;2024-03-29T04:42:18;3.87;;;1.10;;
14847;SDS011;7516;43.570;1.448;2024-03-29T04:44:45;4.13;;;1.00;;
14847;SDS011;7516;43.570;1.448;2024-03-29T04:47:12;3.70;;;1.20;;
14847;SDS011;7516;43.570;1.448;2024-03-29T04:49:40;4.33;;;1.03;;
14847;SDS011;7516;43.570;1.448;2024-03-29T04:52:08;5.23;;;1.03;;
14847;SDS011;7516;43.570;1.448;2024-03-29T04:54:35;3.03;;;1.20;;
14847;SDS011;7516;43.570;1.448;2024-03-29T04:57:04;5.23;;;1.60;;
14847;SDS011;7516;43.570;1.448;2024-03-29T04:59:32;5.33;;;1.37;;
14847;SDS011;7516;43.570;1.448;2024-03-29T05:01:58;4.30;;;1.13;;
14847;SDS011;7516;43.570;1.448;2024-03-29T05:04:26;2.63;;;0.93;;
14847;SDS011;7516;43.570;1.448;2024-03-29T05:06:54;3.10;;;1.30;;
14847;SDS011;7516;43.570;1.448;2024-03-29T05:09:22;3.37;;;1.10;;
14847;SDS011;7516;43.570;1.448;2024-03-29T05:11:48;1.77;;;0.93;;
14847;SDS011;7516;43.570;1.448;2024-03-29T05:14:18;3.63;;;1.00;;
14847;SDS011;7516;43.570;1.448;2024-03-29T05:16:47;2.93;;;1.00;;
14847;SDS011;7516;43.570;1.448;2024-03-29T05:19:15;3.40;;;0.90;;
14847;SDS011;7516;43.570;1.448;2024-03-29T05:21:43;4.27;;;1.13;;
14847;SDS011;7516;43.570;1.448;2024-03-29T05:24:10;5.57;;;1.20;;
14847;SDS011;7516;43.570;1.448;2024-03-29T05:26:38;4.93;;;1.17;;
14847;SDS011;7516;43.570;1.448;2024-03-29T05:29:06;3.07;;;0.90;;
14847;SDS011;7516;43.570;1.448;2024-03-29T05:31:35;4.23;;;1.20;;
14847;SDS011;7516;43.570;1.448;2024-03-29T05:34:03;4.00;;;1.10;;
14847;SDS011;7516;43.570;1.448;2024-03-29T05:36:30;3.13;;;1.10;;
14847;SDS011;7516;43.570;1.448;2024-03-29T05:38:57;4.33;;;1.33;;
14847;SDS011;7516;43.570;1.448;2024-03-29T05:41:25;2.60;;;0.97;;
14847;SDS011;7516;43.570;1.448;2024-03-29T05:43:53;2.93;;;1.20;;
14847;SDS011;7516;43.570;1.448;2024-03-29T05:46:20;5.80;;;1.30;;
14847;SDS011;7516;43.570;1.448;2024-03-29T05:48:49;5.17;;;1.20;;
14847;SDS011;7516;43.570;1.448;2024-03-29T05:51:17;4.53;;;1.13;;
14847;SDS011;7516;43.570;1.448;2024-03-29T05:53:44;5.07;;;1.33;;
14847;SDS011;7516;43.570;1.448;2024-03-29T05:56:12;3.80;;;1.20;;
14847;SDS011;7516;43.570;1.448;2024-03-29T05:58:39;3.83;;;1.50;;
14847;SDS011;7516;43.570;1.448;2024-03-29T06:01:07;3.60;;;1.30;;
14847;SDS011;7516;43.570;1.448;2024-03-29T06:03:34;4.30;;;1.40;;
14847;SDS011;7516;43.570;1.448;2024-03-29T06:06:03;6.47;;;1.40;;
14847;SDS011;7516;43.570;1.448;2024-03-29T06:08:32;3.93;;;1.10;;
14847;SDS011;7516;43.570;1.448;2024-03-29T06:10:59;3.03;;;1.10;;
14847;SDS011;7516;43.570;1.448;2024-03-29T06:13:27;5.47;;;1.50;;
14847;SDS011;7516;43.570;1.448;2024-03-29T06:16:15;4.67;;;1.43;;
14847;SDS011;7516;43.570;1.448;2024-03-29T06:19:01;4.03;;;1.20;;
14847;SDS011;7516;43.570;1.448;2024-03-29T06:21:30;5.13;;;1.60;;
14847;SDS011;7516;43.570;1.448;2024-03-29T06:24:03;3.83;;;1.67;;
14847;SDS011;7516;43.570;1.448;2024-03-29T06:26:32;3.80;;;1.30;;
14847;SDS011;7516;43.570;1.448;2024-03-29T06:28:59;2.90;;;1.10;;
14847;SDS011;7516;43.570;1.448;2024-03-29T06:31:27;3.70;;;1.23;;
14847;SDS011;7516;43.570;1.448;2024-03-29T06:33:55;5.83;;;1.20;;
14847;SDS011;7516;43.570;1.448;2024-03-29T06:36:23;3.83;;;1.33;;
14847;SDS011;7516;43.570;1.448;2024-03-29T06:38:53;4.70;;;1.50;;
14847;SDS011;7516;43.570;1.448;2024-03-29T06:41:20;4.13;;;1.30;;
14847;SDS011;7516;43.570;1.448;2024-03-29T06:43:48;4.47;;;1.73;;
14847;SDS011;7516;43.570;1.448;2024-03-29T06:46:15;3.37;;;1.77;;
14847;SDS011;7516;43.570;1.448;2024-03-29T06:48:43;5.43;;;1.70;;
14847;SDS011;7516;43.570;1.448;2024-03-29T06:51:11;4.03;;;1.57;;
14847;SDS011;7516;43.570;1.448;2024-03-29T06:53:39;3.17;;;1.37;;
14847;SDS011;7516;43.570;1.448;2024-03-29T06:56:07;5.40;;;1.30;;
14847;SDS011;7516;43.570;1.448;2024-03-29T06:58:35;6.27;;;1.53;;
14847;SDS011;7516;43.570;1.448;2024-03-29T07:01:03;4.93;;;1.47;;
14847;SDS011;7516;43.570;1.448;2024-03-29T07:03:31;6.87;;;1.60;;
14847;SDS011;7516;43.570;1.448;2024-03-29T07:05:58;6.83;;;1.63;;
14847;SDS011;7516;43.570;1.448;2024-03-29T07:08:26;2.47;;;1.40;;
14847;SDS011;7516;43.570;1.448;2024-03-29T07:10:59;6.07;;;1.03;;
14847;SDS011;7516;43.570;1.448;2024-03-29T07:13:29;5.67;;;1.63;;
14847;SDS011;7516;43.570;1.448;2024-03-29T07:15:57;5.20;;;1.50;;
14847;SDS011;7516;43.570;1.448;2024-03-29T07:18:25;5.97;;;1.60;;
14847;SDS011;7516;43.570;1.448;2024-03-29T07:20:52;6.20;;;1.47;;
14847;SDS011;7516;43.570;1.448;2024-03-29T07:23:20;4.17;;;1.50;;
14847;SDS011;7516;43.570;1.448;2024-03-29T07:25:57;4.70;;;2.13;;
14847;SDS011;7516;43.570;1.448;2024-03-29T07:28:25;5.13;;;1.50;;
14847;SDS011;7516;43.570;1.448;2024-03-29T07:30:54;8.33;;;1.97;;
14847;SDS011;7516;43.570;1.448;2024-03-29T07:33:21;5.37;;;1.60;;
14847;SDS011;7516;43.570;1.448;2024-03-29T07:35:51;3.87;;;1.73;;
14847;SDS011;7516;43.570;1.448;2024-03-29T07:38:19;5.40;;;1.20;;
14847;SDS011;7516;43.570;1.448;2024-03-29T07:40:47;6.50;;;1.33;;
14847;SDS011;7516;43.570;1.448;2024-03-29T07:43:14;3.17;;;1.60;;
14847;SDS011;7516;43.570;1.448;2024-03-29T07:45:43;4.20;;;1.40;;
14847;SDS011;7516;43.570;1.448;2024-03-29T07:48:12;4.53;;;1.43;;
14847;SDS011;7516;43.570;1.448;2024-03-29T07:50:41;6.37;;;2.30;;
14847;SDS011;7516;43.570;1.448;2024-03-29T07:53:09;3.20;;;1.40;;
14847;SDS011;7516;43.570;1.448;2024-03-29T07:55:38;5.87;;;1.70;;
14847;SDS011;7516;43.570;1.448;2024-03-29T07:58:07;4.43;;;1.47;;
14847;SDS011;7516;43.570;1.448;2024-03-29T08:00:38;5.70;;;1.80;;
14847;SDS011;7516;43.570;1.448;2024-03-29T08:03:07;4.47;;;1.50;;
14847;SDS011;7516;43.570;1.448;2024-03-29T08:05:36;3.90;;;1.60;;
14847;SDS011;7516;43.570;1.448;2024-03-29T08:08:05;3.60;;;1.73;;
14847;SDS011;7516;43.570;1.448;2024-03-29T08:10:33;5.33;;;1.90;;
14847;SDS011;7516;43.570;1.448;2024-03-29T08:13:01;9.43;;;2.10;;
14847;SDS011;7516;43.570;1.448;2024-03-29T08:15:32;5.80;;;1.90;;
14847;SDS011;7516;43.570;1.448;2024-03-29T08:17:59;6.43;;;2.53;;
14847;SDS011;7516;43.570;1.448;2024-03-29T08:20:27;6.20;;;2.20;;
14847;SDS011;7516;43.570;1.448;2024-03-29T08:22:56;5.23;;;1.80;;
14847;SDS011;7516;43.570;1.448;2024-03-29T08:25:26;5.50;;;1.80;;
14847;SDS011;7516;43.570;1.448;2024-03-29T08:27:54;4.73;;;1.53;;
14847;SDS011;7516;43.570;1.448;2024-03-29T08:30:23;5.33;;;1.50;;
14847;SDS011;7516;43.570;1.448;2024-03-29T08:32:51;4.90;;;1.70;;
14847;SDS011;7516;43.570;1.448;2024-03-29T08:35:19;8.73;;;1.90;;
14847;SDS011;7516;43.570;1.448;2024-03-29T08:37:47;8.53;;;1.97;;
14847;SDS011;7516;43.570;1.448;2024-03-29T08:40:16;5.60;;;1.83;;
14847;SDS011;7516;43.570;1.448;2024-03-29T08:42:44;14.90;;;2.00;;
14847;SDS011;7516;43.570;1.448;2024-03-29T08:45:11;5.37;;;1.80;;
14847;SDS011;7516;43.570;1.448;2024-03-29T08:47:39;5.10;;;1.77;;
14847;SDS011;7516;43.570;1.448;2024-03-29T08:50:07;8.33;;;2.00;;
14847;SDS011;7516;43.570;1.448;2024-03-29T08:52:35;8.70;;;2.07;;
14847;SDS011;7516;43.570;1.448;2024-03-29T08:55:03;7.30;;;1.97;;
14847;SDS011;7516;43.570;1.448;2024-03-29T08:57:32;5.00;;;2.23;;
14847;SDS011;7516;43.570;1.448;2024-03-29T09:00:00;8.43;;;2.23;;
14847;SDS011;7516;43.570;1.448;2024-03-29T09:02:30;10.43;;;2.27;;
14847;SDS011;7516;43.570;1.448;2024-03-29T09:04:57;8.20;;;2.43;;
14847;SDS011;7516;43.570;1.448;2024-03-29T09:07:24;7.50;;;2.50;;
14847;SDS011;7516;43.570;1.448;2024-03-29T09:09:52;8.90;;;2.40;;
14847;SDS011;7516;43.570;1.448;2024-03-29T09:12:19;8.30;;;2.50;;
14847;SDS011;7516;43.570;1.448;2024-03-29T09:14:48;12.10;;;3.47;;
14847;SDS011;7516;43.570;1.448;2024-03-29T09:17:17;17.67;;;3.00;;
14847;SDS011;7516;43.570;1.448;2024-03-29T09:19:48;10.17;;;2.60;;
14847;SDS011;7516;43.570;1.448;2024-03-29T09:22:16;14.70;;;2.70;;
14847;SDS011;7516;43.570;1.448;2024-03-29T09:24:44;11.83;;;2.80;;
14847;SDS011;7516;43.570;1.448;2024-03-29T09:27:11;9.70;;;2.27;;
14847;SDS011;7516;43.570;1.448;2024-03-29T09:29:39;12.27;;;2.77;;
14847;SDS011;7516;43.570;1.448;2024-03-29T09:32:09;11.30;;;2.70;;
14847;SDS011;7516;43.570;1.448;2024-03-29T09:34:36;7.17;;;1.80;;
14847;SDS011;7516;43.570;1.448;2024-03-29T09:37:04;10.43;;;2.57;;
14847;SDS011;7516;43.570;1.448;2024-03-29T09:39:31;10.73;;;2.40;;
14847;SDS011;7516;43.570;1.448;2024-03-29T09:41:59;12.10;;;2.53;;
14847;SDS011;7516;43.570;1.448;2024-03-29T09:44:31;11.30;;;3.03;;
14847;SDS011;7516;43.570;1.448;2024-03-29T09:47:02;11.10;;;2.77;;
14847;SDS011;7516;43.570;1.448;2024-03-29T09:49:31;11.77;;;2.43;;
14847;SDS011;7516;43.570;1.448;2024-03-29T09:52:00;13.90;;;3.37;;
14847;SDS011;7516;43.570;1.448;2024-03-29T09:54:28;11.87;;;2.83;;
14847;SDS011;7516;43.570;1.448;2024-03-29T09:56:56;15.27;;;2.83;;
14847;SDS011;7516;43.570;1.448;2024-03-29T09:59:24;15.00;;;3.00;;
14847;SDS011;7516;43.570;1.448;2024-03-29T10:01:55;12.53;;;2.90;;
14847;SDS011;7516;43.570;1.448;2024-03-29T10:04:23;13.00;;;2.83;;
14847;SDS011;7516;43.570;1.448;2024-03-29T10:06:52;15.53;;;3.83;;
14847;SDS011;7516;43.570;1.448;2024-03-29T10:09:22;14.40;;;3.30;;
14847;SDS011;7516;43.570;1.448;2024-03-29T10:11:54;14.63;;;3.10;;
14847;SDS011;7516;43.570;1.448;2024-03-29T10:14:22;13.80;;;2.70;;
14847;SDS011;7516;43.570;1.448;2024-03-29T10:16:50;12.37;;;2.57;;
14847;SDS011;7516;43.570;1.448;2024-03-29T10:19:18;12.43;;;2.57;;
14847;SDS011;7516;43.570;1.448;2024-03-29T10:21:46;12.83;;;3.03;;
14847;SDS011;7516;43.570;1.448;2024-03-29T10:24:15;19.27;;;3.03;;
14847;SDS011;7516;43.570;1.448;2024-03-29T10:26:43;18.10;;;3.77;;
14847;SDS011;7516;43.570;1.448;2024-03-29T10:29:10;10.87;;;2.50;;
14847;SDS011;7516;43.570;1.448;2024-03-29T10:31:40;47.33;;;5.10;;
14847;SDS011;7516;43.570;1.448;2024-03-29T10:34:09;14.67;;;2.40;;
14847;SDS011;7516;43.570;1.448;2024-03-29T10:36:36;10.53;;;2.20;;
14847;SDS011;7516;43.570;1.448;2024-03-29T10:39:08;12.27;;;2.50;;
14847;SDS011;7516;43.570;1.448;2024-03-29T10:41:40;8.90;;;2.73;;
14847;SDS011;7516;43.570;1.448;2024-03-29T10:44:08;8.80;;;1.93;;
14847;SDS011;7516;43.570;1.448;2024-03-29T10:46:38;9.97;;;1.93;;
14847;SDS011;7516;43.570;1.448;2024-03-29T10:49:07;9.13;;;2.13;;
14847;SDS011;7516;43.570;1.448;2024-03-29T10:51:36;7.00;;;1.90;;
14847;SDS011;7516;43.570;1.448;2024-03-29T10:54:05;9.23;;;2.30;;
14847;SDS011;7516;43.570;1.448;2024-03-29T10:56:35;8.93;;;2.27;;
14847;SDS011;7516;43.570;1.448;2024-03-29T10:59:06;7.13;;;2.23;;
14847;SDS011;7516;43.570;1.448;2024-03-29T11:01:38;10.37;;;2.03;;
14847;SDS011;7516;43.570;1.448;2024-03-29T11:04:16;12.10;;;2.13;;
14847;SDS011;7516;43.570;1.448;2024-03-29T11:06:50;11.23;;;2.27;;
14847;SDS011;7516;43.570;1.448;2024-03-29T11:09:20;9.47;;;2.27;;
14847;SDS011;7516;43.570;1.448;2024-03-29T11:11:54;7.90;;;2.20;;
14847;SDS011;7516;43.570;1.448;2024-03-29T11:14:26;9.33;;;1.70;;
14847;SDS011;7516;43.570;1.448;2024-03-29T11:16:57;6.27;;;1.97;;
14847;SDS011;7516;43.570;1.448;2024-03-29T11:19:25;8.50;;;1.93;;
14847;SDS011;7516;43.570;1.448;2024-03-29T11:21:54;8.50;;;2.00;;
14847;SDS011;7516;43.570;1.448;2024-03-29T11:24:22;11.77;;;2.37;;
14847;SDS011;7516;43.570;1.448;2024-03-29T11:26:51;11.30;;;2.27;;
14847;SDS011;7516;43.570;1.448;2024-03-29T11:29:19;8.13;;;2.10;;
14847;SDS011;7516;43.570;1.448;2024-03-29T11:31:55;7.23;;;1.70;;
14847;SDS011;7516;43.570;1.448;2024-03-29T11:34:24;9.13;;;2.53;;
14847;SDS011;7516;43.570;1.448;2024-03-29T11:36:51;8.13;;;2.00;;
14847;SDS011;7516;43.570;1.448;2024-03-29T11:39:22;7.97;;;2.20;;
14847;SDS011;7516;43.570;1.448;2024-03-29T11:41:50;8.80;;;2.10;;
14847;SDS011;7516;43.570;1.448;2024-03-29T11:44:18;11.63;;;2.03;;
14847;SDS011;7516;43.570;1.448;2024-03-29T11:46:46;10.87;;;2.80;;
14847;SDS011;7516;43.570;1.448;2024-03-29T11:49:16;10.17;;;2.23;;
14847;SDS011;7516;43.570;1.448;2024-03-29T11:51:43;12.00;;;3.33;;
14847;SDS011;7516;43.570;1.448;2024-03-29T11:54:12;11.27;;;2.03;;
14847;SDS011;7516;43.570;1.448;2024-03-29T11:56:41;5.07;;;1.90;;
14847;SDS011;7516;43.570;1.448;2024-03-29T11:59:09;7.63;;;1.93;;
14847;SDS011;7516;43.570;1.448;2024-03-29T12:01:38;9.97;;;1.83;;
14847;SDS011;7516;43.570;1.448;2024-03-29T12:04:07;9.73;;;2.23;;
14847;SDS011;7516;43.570;1.448;2024-03-29T12:06:35;8.70;;;2.43;;
14847;SDS011;7516;43.570;1.448;2024-03-29T12:09:03;7.73;;;1.90;;
14847;SDS011;7516;43.570;1.448;2024-03-29T12:11:31;6.83;;;2.40;;
14847;SDS011;7516;43.570;1.448;2024-03-29T12:13:59;9.07;;;2.47;;
14847;SDS011;7516;43.570;1.448;2024-03-29T12:16:26;8.63;;;1.60;;
14847;SDS011;7516;43.570;1.448;2024-03-29T12:18:54;7.40;;;2.23;;
14847;SDS011;7516;43.570;1.448;2024-03-29T12:21:22;11.07;;;2.40;;
14847;SDS011;7516;43.570;1.448;2024-03-29T12:23:50;8.93;;;2.13;;
14847;SDS011;7516;43.570;1.448;2024-03-29T12:26:19;9.77;;;2.10;;
14847;SDS011;7516;43.570;1.448;2024-03-29T12:28:48;11.47;;;2.00;;
14847;SDS011;7516;43.570;1.448;2024-03-29T12:31:16;9.07;;;2.20;;
14847;SDS011;7516;43.570;1.448;2024-03-29T12:33:50;10.03;;;1.93;;
14847;SDS011;7516;43.570;1.448;2024-03-29T12:36:18;7.73;;;2.57;;
14847;SDS011;7516;43.570;1.448;2024-03-29T12:38:53;7.80;;;1.90;;
14847;SDS011;7516;43.570;1.448;2024-03-29T12:41:28;10.27;;;2.17;;
14847;SDS011;7516;43.570;1.448;2024-03-29T12:43:56;7.97;;;1.70;;
14847;SDS011;7516;43.570;1.448;2024-03-29T12:46:23;10.10;;;2.17;;
14847;SDS011;7516;43.570;1.448;2024-03-29T12:48:56;8.00;;;2.53;;
14847;SDS011;7516;43.570;1.448;2024-03-29T12:51:26;12.03;;;2.17;;
14847;SDS011;7516;43.570;1.448;2024-03-29T12:53:54;10.00;;;2.50;;
14847;SDS011;7516;43.570;1.448;2024-03-29T12:56:25;10.83;;;2.83;;
14847;SDS011;7516;43.570;1.448;2024-03-29T12:58:53;9.93;;;2.50;;
14847;SDS011;7516;43.570;1.448;2024-03-29T13:01:20;10.33;;;1.93;;
14847;SDS011;7516;43.570;1.448;2024-03-29T13:03:48;11.83;;;2.60;;
14847;SDS011;7516;43.570;1.448;2024-03-29T13:06:16;7.83;;;2.23;;
14847;SDS011;7516;43.570;1.448;2024-03-29T13:08:45;9.83;;;2.40;;
14847;SDS011;7516;43.570;1.448;2024-03-29T13:11:14;8.73;;;2.30;;
14847;SDS011;7516;43.570;1.448;2024-03-29T13:13:42;9.23;;;1.90;;
14847;SDS011;7516;43.570;1.448;2024-03-29T13:16:09;10.33;;;2.17;;
14847;SDS011;7516;43.570;1.448;2024-03-29T13:18:37;9.97;;;2.40;;
14847;SDS011;7516;43.570;1.448;2024-03-29T13:21:04;8.77;;;2.27;;
14847;SDS011;7516;43.570;1.448;2024-03-29T13:23:32;10.73;;;2.20;;
14847;SDS011;7516;43.570;1.448;2024-03-29T13:26:01;5.10;;;2.10;;
14847;SDS011;7516;43.570;1.448;2024-03-29T13:28:30;9.13;;;2.53;;
14847;SDS011;7516;43.570;1.448;2024-03-29T13:30:57;10.03;;;2.23;;
14847;SDS011;7516;43.570;1.448;2024-03-29T13:33:25;10.00;;;2.43;;
14847;SDS011;7516;43.570;1.448;2024-03-29T13:35:53;10.93;;;2.90;;
14847;SDS011;7516;43.570;1.448;2024-03-29T13:38:22;11.27;;;2.13;;
14847;SDS011;7516;43.570;1.448;2024-03-29T13:40:51;8.23;;;2.53;;
14847;SDS011;7516;43.570;1.448;2024-03-29T13:43:21;8.73;;;2.30;;
14847;SDS011;7516;43.570;1.448;2024-03-29T13:45:48;8.97;;;2.53;;
14847;SDS011;7516;43.570;1.448;2024-03-29T13:48:16;8.93;;;2.03;;
14847;SDS011;7516;43.570;1.448;2024-03-29T13:50:44;7.03;;;1.80;;
14847;SDS011;7516;43.570;1.448;2024-03-29T13:53:11;3.60;;;1.30;;
14847;SDS011;7516;43.570;1.448;2024-03-29T13:55:40;3.43;;;1.00;;
14847;SDS011;7516;43.570;1.448;2024-03-29T13:58:07;3.23;;;1.20;;
14847;SDS011;7516;43.570;1.448;2024-03-29T14:00:36;4.20;;;1.27;;
14847;SDS011;7516;43.570;1.448;2024-03-29T14:03:04;2.87;;;1.10;;
14847;SDS011;7516;43.570;1.448;2024-03-29T14:05:31;3.13;;;0.97;;
14847;SDS011;7516;43.570;1.448;2024-03-29T14:07:59;3.97;;;1.30;;
14847;SDS011;7516;43.570;1.448;2024-03-29T14:10:27;3.63;;;1.10;;
14847;SDS011;7516;43.570;1.448;2024-03-29T14:12:55;2.30;;;1.20;;
14847;SDS011;7516;43.570;1.448;2024-03-29T14:15:24;3.13;;;1.17;;
14847;SDS011;7516;43.570;1.448;2024-03-29T14:17:53;3.47;;;1.03;;
14847;SDS011;7516;43.570;1.448;2024-03-29T14:20:21;3.20;;;1.40;;
14847;SDS011;7516;43.570;1.448;2024-03-29T14:22:48;4.43;;;1.10;;
14847;SDS011;7516;43.570;1.448;2024-03-29T14:25:20;3.20;;;1.23;;
14847;SDS011;7516;43.570;1.448;2024-03-29T14:27:48;3.13;;;0.97;;
14847;SDS011;7516;43.570;1.448;2024-03-29T14:30:22;3.50;;;0.90;;
14847;SDS011;7516;43.570;1.448;2024-03-29T14:32:50;3.63;;;1.03;;
14847;SDS011;7516;43.570;1.448;2024-03-29T14:35:20;3.27;;;1.20;;
14847;SDS011;7516;43.570;1.448;2024-03-29T14:37:49;3.43;;;1.00;;
14847;SDS011;7516;43.570;1.448;2024-03-29T14:40:16;2.77;;;1.03;;
14847;SDS011;7516;43.570;1.448;2024-03-29T14:42:44;2.53;;;1.00;;
14847;SDS011;7516;43.570;1.448;2024-03-29T14:45:11;1.27;;;0.73;;
14847;SDS011;7516;43.570;1.448;2024-03-29T14:47:39;4.53;;;0.70;;
14847;SDS011;7516;43.570;1.448;2024-03-29T14:50:07;2.97;;;0.70;;
14847;SDS011;7516;43.570;1.448;2024-03-29T14:52:37;1.83;;;0.80;;
14847;SDS011;7516;43.570;1.448;2024-03-29T14:55:04;2.57;;;0.63;;
14847;SDS011;7516;43.570;1.448;2024-03-29T14:57:32;2.23;;;0.70;;
14847;SDS011;7516;43.570;1.448;2024-03-29T15:00:01;1.83;;;1.07;;
14847;SDS011;7516;43.570;1.448;2024-03-29T15:02:29;2.40;;;0.83;;
14847;SDS011;7516;43.570;1.448;2024-03-29T15:04:57;2.00;;;0.70;;